Heroic Ace — HPFM — position and weather

sailwx.info

Track history (hours):
 
Tides and Currents Weather Stations Pressure Air Temp Water Temp Dewpoint Dewpoint Depression Visibility Wind Speed Wind Dir Waves Ship Positions

Heroic Ace

Last reported at 2018-Jun-15 05:09 UTC. Time now 2018-Jun-21 11:59 UTC.
Position N 32°11' W 123°37'.

Length 198 m; draft 7.3 m.

Type: Cargo ship. MMSI: 352915000.

Date/timePositionNaut miles runAvg speedWind from/ knotsBaromVisibWave heightAir tempDewpointWater temp
2018-Jun-15 05:09N 32°11' W 123°37'2419.3
2018-Jun-15 03:54N 32°12' W 123°09'819.4
2018-Jun-15 03:30N 32°12' W 122°60'3119.2
2018-Jun-15 01:54N 32°11' W 122°23'1119.3
2018-Jun-15 01:21N 32°11' W 122°11'618.5
2018-Jun-15 01:00N 32°11' W 122°03'4919.2
2018-Jun-14 22:27N 32°17' W 121°05'919.4
2018-Jun-14 22:00N 32°18' W 120°55'1019.4
2018-Jun-14 21:30N 32°20' W 120°44'1019.5
2018-Jun-14 20:59N 32°21' W 120°32'5619.2
2018-Jun-14 18:05N 32°30' W 119°27'318.9
2018-Jun-14 17:54N 32°30' W 119°23'819.0
2018-Jun-14 17:30N 32°32' W 119°14'918.9
2018-Jun-14 17:00N 32°33' W 119°03'1019.3
2018-Jun-14 16:29N 32°34' W 118°51'1019.8
2018-Jun-14 16:00N 32°35' W 118°40'1019.9
2018-Jun-14 15:30N 32°36' W 118°28'1019.6
2018-Jun-14 15:00N 32°37' W 118°17'1019.8
2018-Jun-14 14:30N 32°37' W 118°05'1020.0
2018-Jun-14 14:00N 32°37' W 117°53'918.1
2018-Jun-14 13:30N 32°38' W 117°42'712.6
2018-Jun-14 12:59N 32°38' W 117°34'611.6
2018-Jun-14 12:30N 32°38' W 117°28'611.6
2018-Jun-14 12:00N 32°38' W 117°21'610.8
2018-Jun-14 11:29N 32°38' W 117°14'6 8.9
2018-Jun-14 10:52N 32°43' W 117°12'6 9.9
2018-Jun-14 10:18N 32°39' W 117°07'0 0.2
2018-Jun-14 09:36N 32°39' W 117°07'0 0.0
2018-Jun-14 08:12N 32°39' W 117°07'0 0.0
2018-Jun-14 08:00N 32°39' W 117°07'0 0.0
2018-Jun-14 06:33N 32°39' W 117°07'0 0.0
2018-Jun-14 06:27N 32°39' W 117°07'0 0.0
2018-Jun-14 05:51N 32°39' W 117°07'0 0.0
2018-Jun-14 05:27N 32°39' W 117°07'0 0.0
2018-Jun-14 05:00N 32°39' W 117°07'0 0.0
2018-Jun-14 04:27N 32°39' W 117°07'0 0.0
2018-Jun-14 02:54N 32°39' W 117°07'0 0.0
2018-Jun-14 02:30N 32°39' W 117°07'0 0.0
2018-Jun-14 02:00N 32°39' W 117°07'0 0.0
2018-Jun-14 00:39N 32°39' W 117°07'0 0.0
2018-Jun-14 00:15N 32°39' W 117°07'0 0.0
2018-Jun-13 23:48N 32°39' W 117°07'0 0.0
2018-Jun-13 23:27N 32°39' W 117°07'0 0.0
2018-Jun-13 22:57N 32°39' W 117°07'0 0.0
2018-Jun-13 22:15N 32°39' W 117°07'0 0.0
2018-Jun-13 22:00N 32°39' W 117°07'0 0.0
2018-Jun-13 19:45N 32°39' W 117°07'0 0.0
2018-Jun-13 19:18N 32°39' W 117°07'0 0.0
2018-Jun-13 19:00N 32°39' W 117°07'0 0.0
2018-Jun-13 18:30N 32°39' W 117°07'0 0.0
2018-Jun-13 18:00N 32°39' W 117°07'0 0.0
2018-Jun-13 17:24N 32°39' W 117°07'0 0.0
2018-Jun-13 17:00N 32°39' W 117°07'0 0.0
2018-Jun-13 15:36N 32°39' W 117°07'0 0.0
2018-Jun-13 15:09N 32°39' W 117°07'0 0.0
2018-Jun-13 14:39N 32°39' W 117°07'0 0.0
2018-Jun-13 13:30N 32°39' W 117°07'0 0.0
2018-Jun-13 12:12N 32°39' W 117°07'0 0.0
2018-Jun-13 12:00N 32°39' W 117°07'0 0.0
2018-Jun-13 11:30N 32°39' W 117°07'2 3.6
2018-Jun-13 10:58N 32°41' W 117°08'5 6.2
2018-Jun-13 10:13N 32°39' W 117°14'2 8.3
2018-Jun-13 10:00N 32°38' W 117°14'4 7.8
2018-Jun-13 09:30N 32°37' W 117°18'611.2
2018-Jun-13 09:00N 32°37' W 117°25'611.8
2018-Jun-13 08:31N 32°37' W 117°32'611.5
2018-Jun-13 08:00N 32°37' W 117°39'713.9
2018-Jun-13 07:30N 32°37' W 117°47'715.0
2018-Jun-13 07:00N 32°37' W 117°56'714.7
2018-Jun-13 06:30N 32°37' W 118°05'714.6
2018-Jun-13 06:00N 32°36' W 118°13'714.6
2018-Jun-13 05:30N 32°36' W 118°22'714.5
2018-Jun-13 05:00N 32°35' W 118°30'714.7
2018-Jun-13 04:31N 32°35' W 118°39'815.2
2018-Jun-13 04:00N 32°35' W 118°48'815.2
2018-Jun-13 03:30N 32°34' W 118°57'714.7
2018-Jun-13 03:00N 32°34' W 119°06'714.5
2018-Jun-13 02:30N 32°32' W 119°15'714.6
2018-Jun-13 02:00N 32°29' W 119°22'814.3
2018-Jun-13 01:29N 32°26' W 119°30'5 2.4
2018-Jun-12 23:22N 32°27' W 119°36'1 2.3
2018-Jun-12 22:58N 32°28' W 119°36'2 1.8
2018-Jun-12 21:45N 32°30' W 119°38'1 4.6
2018-Jun-12 21:29N 32°29' W 119°39'2714.5
2018-Jun-12 19:39N 32°25' W 120°10'715.1
2018-Jun-12 19:11N 32°24' W 120°18'212.7
2018-Jun-12 19:00N 32°24' W 120°21'813.9
2018-Jun-12 18:25N 32°22' W 120°30'713.4
2018-Jun-12 17:54N 32°21' W 120°38'5913.2
2018-Jun-12 13:25N 32°15' W 121°48'614.5
2018-Jun-12 13:00N 32°20' W 121°51'814.6
2018-Jun-12 12:29N 32°27' W 121°55'714.4
2018-Jun-12 12:00N 32°33' W 121°59'714.4
2018-Jun-12 11:30N 32°39' W 122°03'714.4
2018-Jun-12 11:00N 32°45' W 122°08'714.5
2018-Jun-12 10:29N 32°52' W 122°12'714.4
2018-Jun-12 10:00N 32°58' W 122°16'714.4
2018-Jun-12 09:30N 33°04' W 122°20'1814.4
2018-Jun-12 08:16N 33°20' W 122°31'514.3
2018-Jun-12 07:53N 33°24' W 122°35'814.6
2018-Jun-12 07:22N 33°31' W 122°39'514.4
2018-Jun-12 07:00N 33°35' W 122°42'714.4
2018-Jun-12 06:30N 33°41' W 122°47'814.5
2018-Jun-12 05:58N 33°48' W 122°51'714.5
2018-Jun-12 05:30N 33°54' W 122°55'714.5
2018-Jun-12 05:00N 34°01' W 122°59'714.9
2018-Jun-12 04:30N 34°07' W 123°03'714.8
2018-Jun-12 04:00N 34°14' W 123°07'1114.8
2018-Jun-12 03:15N 34°24' W 123°13'414.9
2018-Jun-12 03:00N 34°27' W 123°15'715.0
2018-Jun-12 02:30N 34°33' W 123°20'915.0
2018-Jun-12 01:55N 34°41' W 123°25'1714.6
2018-Jun-12 00:44N 34°56' W 123°34'14914.9
2018-Jun-11 14:46N 37°10' W 124°54'414.9
2018-Jun-11 14:29N 37°14' W 124°56'1114.6
2018-Jun-11 13:42N 37°25' W 125°02'314.6
2018-Jun-11 13:30N 37°27' W 125°04'1914.7
2018-Jun-11 12:14N 37°44' W 125°14'1714.9
2018-Jun-11 11:07N 37°59' W 125°23'514.8
2018-Jun-11 10:46N 38°04' W 125°26'43714.1
2018-Jun-10 03:48N 45°21' W 125°19'914.4
2018-Jun-10 03:10N 45°30' W 125°20'214.3
2018-Jun-10 03:00N 45°32' W 125°20'1114.5
2018-Jun-10 02:15N 45°43' W 125°20'314.1
2018-Jun-10 02:01N 45°46' W 125°20'714.4
2018-Jun-10 01:31N 45°54' W 125°21'1514.4
2018-Jun-10 00:27N 46°09' W 125°21'614.4
2018-Jun-10 00:00N 46°15' W 125°22'714.3
2018-Jun-09 23:31N 46°22' W 125°22'714.3
2018-Jun-09 23:01N 46°30' W 125°22'714.3
2018-Jun-09 22:31N 46°37' W 125°22'714.1
2018-Jun-09 22:01N 46°44' W 125°23'913.7
2018-Jun-09 21:22N 46°52' W 125°24'6814.3
2018-Jun-09 16:38N 47°60' W 125°22'513.9
2018-Jun-09 16:17N 48°05' W 125°20'414.1
2018-Jun-09 16:00N 48°09' W 125°19'714.2
2018-Jun-09 15:30N 48°16' W 125°17'1313.5
2018-Jun-09 14:30N 48°27' W 125°06'713.0
2018-Jun-09 14:00N 48°31' W 124°58'713.6
2018-Jun-09 13:30N 48°31' W 124°48'815.1
2018-Jun-09 13:00N 48°29' W 124°37'815.8
2018-Jun-09 12:30N 48°26' W 124°26'816.2
2018-Jun-09 12:01N 48°23' W 124°15'815.9
2018-Jun-09 11:30N 48°20' W 124°04'816.0
2018-Jun-09 10:59N 48°17' W 123°52'815.8
2018-Jun-09 10:30N 48°16' W 123°40'714.2
2018-Jun-09 09:59N 48°17' W 123°29'814.5
2018-Jun-09 09:28N 48°23' W 123°23'510.6
2018-Jun-09 09:00N 48°24' W 123°16'816.5
2018-Jun-09 08:30N 48°32' W 123°13'918.4
2018-Jun-09 08:00N 48°41' W 123°16'917.0
2018-Jun-09 07:30N 48°45' W 123°05'713.0
2018-Jun-09 07:00N 48°52' W 123°05'918.6
2018-Jun-09 06:30N 48°58' W 123°15'714.1
2018-Jun-09 06:00N 49°04' W 123°21'5 9.8
2018-Jun-09 05:29N 49°08' W 123°15'611.7
2018-Jun-09 05:00N 49°07' W 123°06'2 3.4
2018-Jun-09 04:29N 49°08' W 123°04'0 0.0
2018-Jun-09 03:59N 49°08' W 123°04'0 0.0
2018-Jun-09 03:29N 49°08' W 123°04'0 0.0
2018-Jun-09 02:59N 49°08' W 123°04'0 0.0
2018-Jun-09 02:29N 49°08' W 123°04'0 0.0
2018-Jun-09 01:59N 49°08' W 123°04'0 0.0
2018-Jun-09 01:29N 49°08' W 123°04'0 0.0
2018-Jun-09 00:59N 49°08' W 123°04'0 0.0
2018-Jun-09 00:29N 49°08' W 123°04'0 0.0
2018-Jun-08 23:59N 49°08' W 123°04'0 0.0
2018-Jun-08 23:29N 49°08' W 123°04'0 0.0
2018-Jun-08 22:59N 49°08' W 123°04'0 0.0
2018-Jun-08 22:29N 49°08' W 123°04'0 0.0
2018-Jun-08 21:59N 49°08' W 123°04'0 0.0
2018-Jun-08 21:29N 49°08' W 123°04'0 0.0
2018-Jun-08 20:53N 49°08' W 123°04'0 0.0
2018-Jun-08 20:29N 49°08' W 123°04'0 0.0
2018-Jun-08 19:59N 49°08' W 123°04'0 0.0
2018-Jun-08 19:29N 49°08' W 123°04'0 0.0
2018-Jun-08 18:59N 49°08' W 123°04'0 0.0
2018-Jun-08 18:29N 49°08' W 123°04'0 0.0
2018-Jun-08 17:59N 49°08' W 123°04'0 0.0
2018-Jun-08 17:29N 49°08' W 123°04'0 0.0
2018-Jun-08 16:56N 49°08' W 123°04'0 0.0
2018-Jun-08 16:29N 49°08' W 123°04'0 0.0
2018-Jun-08 15:59N 49°08' W 123°04'0 0.0
2018-Jun-08 15:29N 49°08' W 123°04'0 0.0
2018-Jun-08 14:59N 49°08' W 123°04'0 0.0
2018-Jun-08 14:29N 49°08' W 123°04'0 0.0
2018-Jun-08 13:59N 49°08' W 123°04'0 0.0
2018-Jun-08 13:29N 49°08' W 123°04'0 0.0
2018-Jun-08 12:59N 49°08' W 123°04'0 0.0
2018-Jun-08 12:29N 49°08' W 123°04'0 0.0
2018-Jun-08 11:59N 49°08' W 123°04'0 0.0
2018-Jun-08 11:29N 49°08' W 123°04'0 0.0
2018-Jun-08 10:59N 49°08' W 123°04'0 0.0
2018-Jun-08 10:28N 49°08' W 123°04'0 0.0
2018-Jun-08 09:59N 49°08' W 123°04'0 0.0
2018-Jun-08 09:29N 49°08' W 123°04'0 0.0
2018-Jun-08 08:59N 49°08' W 123°04'0 0.0
2018-Jun-08 08:29N 49°08' W 123°04'0 0.0
2018-Jun-08 07:59N 49°08' W 123°04'0 0.0
2018-Jun-08 07:29N 49°08' W 123°04'0 0.0
2018-Jun-08 06:59N 49°08' W 123°04'0 0.0
2018-Jun-08 06:29N 49°08' W 123°04'0 0.0
2018-Jun-08 05:59N 49°08' W 123°04'0 0.0
2018-Jun-08 05:29N 49°08' W 123°04'0 0.0
2018-Jun-08 04:59N 49°08' W 123°04'0 0.0
2018-Jun-08 04:29N 49°08' W 123°04'0 0.0
2018-Jun-08 03:59N 49°08' W 123°04'0 0.0
2018-Jun-08 03:29N 49°08' W 123°04'0 0.0
2018-Jun-08 02:59N 49°08' W 123°04'0 0.0
2018-Jun-08 02:29N 49°08' W 123°04'0 0.0
2018-Jun-08 01:56N 49°08' W 123°04'0 0.0
2018-Jun-08 01:29N 49°08' W 123°04'0 0.0
2018-Jun-08 00:59N 49°08' W 123°04'0 0.0
2018-Jun-08 00:29N 49°08' W 123°04'0 0.0
2018-Jun-07 23:59N 49°08' W 123°04'0 0.0
2018-Jun-07 23:29N 49°08' W 123°04'0 0.0
2018-Jun-07 22:59N 49°08' W 123°04'0 0.0
2018-Jun-07 22:29N 49°08' W 123°04'0 0.0
2018-Jun-07 21:59N 49°08' W 123°04'0 0.0
2018-Jun-07 21:29N 49°08' W 123°04'0 0.0
2018-Jun-07 20:59N 49°08' W 123°04'0 0.0
2018-Jun-07 20:29N 49°08' W 123°04'0 0.0
2018-Jun-07 19:59N 49°08' W 123°04'0 0.0
2018-Jun-07 19:29N 49°08' W 123°04'0 0.0
2018-Jun-07 18:59N 49°08' W 123°04'0 0.0
2018-Jun-07 18:29N 49°08' W 123°04'0 0.0
2018-Jun-07 17:59N 49°08' W 123°04'0 0.0
2018-Jun-07 17:29N 49°08' W 123°04'0 0.0
2018-Jun-07 16:59N 49°08' W 123°04'0 0.0
2018-Jun-07 16:29N 49°08' W 123°04'0 0.0
2018-Jun-07 15:59N 49°08' W 123°04'0 0.0
2018-Jun-07 15:29N 49°08' W 123°04'0 0.0
2018-Jun-07 14:59N 49°08' W 123°04'0 0.0
2018-Jun-07 14:29N 49°08' W 123°04'0 0.0
2018-Jun-07 13:56N 49°08' W 123°04'0 0.0
2018-Jun-07 13:29N 49°08' W 123°04'0 0.8
2018-Jun-07 13:00N 49°07' W 123°04'5 9.0
2018-Jun-07 12:30N 49°07' W 123°11'5 9.7
2018-Jun-07 12:00N 49°06' W 123°19'3 6.4
2018-Jun-07 11:30N 49°03' W 123°18'816.4
2018-Jun-07 11:00N 48°57' W 123°10'918.4
2018-Jun-07 10:30N 48°50' W 123°01'815.1
2018-Jun-07 10:00N 48°44' W 123°07'714.5
2018-Jun-07 09:31N 48°38' W 123°14'918.4
2018-Jun-07 09:01N 48°29' W 123°10'815.0
2018-Jun-07 08:30N 48°23' W 123°16'510.9
2018-Jun-07 08:00N 48°21' W 123°24'18 9.7
2018-Jun-07 06:07N 48°12' W 122°59'2215.2
2018-Jun-07 04:42N 47°58' W 122°35'316.6
2018-Jun-07 04:30N 47°56' W 122°31'917.8
2018-Jun-07 04:01N 47°48' W 122°27'918.4
2018-Jun-07 03:31N 47°39' W 122°27'918.7
2018-Jun-07 03:01N 47°30' W 122°25'816.0
2018-Jun-07 02:31N 47°22' W 122°23'5 9.5
2018-Jun-07 01:59N 47°17' W 122°26'2 4.6
2018-Jun-07 01:27N 47°16' W 122°23'0 0.0
2018-Jun-06 20:46N 47°15' W 122°23'0 0.0
2018-Jun-06 20:31N 47°15' W 122°23'0 0.0
2018-Jun-06 19:04N 47°15' W 122°23'0 0.0
2018-Jun-06 18:40N 47°15' W 122°23'0 0.0
2018-Jun-06 18:16N 47°15' W 122°23'0 0.0
2018-Jun-06 16:40N 47°15' W 122°23'0 0.0
2018-Jun-06 16:25N 47°15' W 122°23'0 0.0
2018-Jun-06 15:13N 47°15' W 122°23'0 0.0
2018-Jun-06 14:58N 47°15' W 122°23'0 0.0
2018-Jun-06 13:28N 47°15' W 122°23'0 0.0
2018-Jun-06 11:40N 47°15' W 122°23'0 0.0
2018-Jun-06 11:28N 47°15' W 122°23'0 0.0
2018-Jun-06 10:52N 47°15' W 122°23'0 0.1
2018-Jun-06 10:29N 47°16' W 122°23'1 2.9
2018-Jun-06 10:00N 47°16' W 122°24'3 5.0
2018-Jun-06 09:30N 47°18' W 122°27'612.8
2018-Jun-06 09:01N 47°23' W 122°22'916.8
2018-Jun-06 08:30N 47°31' W 122°26'816.7
2018-Jun-06 08:01N 47°39' W 122°28'815.4
2018-Jun-06 07:30N 47°47' W 122°27'816.6
2018-Jun-06 07:01N 47°55' W 122°30'917.6
2018-Jun-06 06:29N 48°02' W 122°39'917.9
2018-Jun-06 06:00N 48°10' W 122°45'1018.7
2018-Jun-06 05:27N 48°12' W 123°01'1813.9
2018-Jun-06 04:08N 48°12' W 123°28'915.7
2018-Jun-06 03:36N 48°13' W 123°41'218.1
2018-Jun-06 03:30N 48°13' W 123°43'917.8
2018-Jun-06 03:00N 48°14' W 123°56'917.8
2018-Jun-06 02:31N 48°17' W 124°09'918.1
2018-Jun-06 02:00N 48°21' W 124°21'918.3
2018-Jun-06 01:30N 48°25' W 124°33'917.5
2018-Jun-06 01:00N 48°29' W 124°45'918.3
2018-Jun-06 00:30N 48°29' W 124°59'917.4
2018-Jun-06 00:00N 48°29' W 125°12'815.0
2018-Jun-05 23:29N 48°28' W 125°24'2 4.6
2018-Jun-05 23:00N 48°28' W 125°27'714.0
2018-Jun-05 22:30N 48°29' W 125°38'816.5
2018-Jun-05 22:00N 48°29' W 125°50'816.9
2018-Jun-05 21:31N 48°29' W 126°03'816.9
2018-Jun-05 21:01N 48°29' W 126°16'816.6
2018-Jun-05 20:31N 48°30' W 126°28'  
Track history (hours):
 
Tides and Currents Weather Stations Pressure Air Temp Water Temp Dewpoint Dewpoint Depression Visibility Wind Speed Wind Dir Waves Ship Positions

Heroic Ace

Last reported at 2018-Jun-15 05:09 UTC. Time now 2018-Jun-21 11:59 UTC.
Position N 32°11' W 123°37'.

Length 198 m; draft 7.3 m.

Type: Cargo ship. MMSI: 352915000.

Date/timePositionNaut miles runAvg speedWind from/ knotsBaromVisibWave heightAir tempDewpointWater temp
2018-Jun-15 05:09N 32°11' W 123°37'2419.3
2018-Jun-15 03:54N 32°12' W 123°09'819.4
2018-Jun-15 03:30N 32°12' W 122°60'3119.2
2018-Jun-15 01:54N 32°11' W 122°23'1119.3
2018-Jun-15 01:21N 32°11' W 122°11'618.5
2018-Jun-15 01:00N 32°11' W 122°03'4919.2
2018-Jun-14 22:27N 32°17' W 121°05'919.4
2018-Jun-14 22:00N 32°18' W 120°55'1019.4
2018-Jun-14 21:30N 32°20' W 120°44'1019.5
2018-Jun-14 20:59N 32°21' W 120°32'5619.2
2018-Jun-14 18:05N 32°30' W 119°27'318.9
2018-Jun-14 17:54N 32°30' W 119°23'819.0
2018-Jun-14 17:30N 32°32' W 119°14'918.9
2018-Jun-14 17:00N 32°33' W 119°03'1019.3
2018-Jun-14 16:29N 32°34' W 118°51'1019.8
2018-Jun-14 16:00N 32°35' W 118°40'1019.9
2018-Jun-14 15:30N 32°36' W 118°28'1019.6
2018-Jun-14 15:00N 32°37' W 118°17'1019.8
2018-Jun-14 14:30N 32°37' W 118°05'1020.0
2018-Jun-14 14:00N 32°37' W 117°53'918.1
2018-Jun-14 13:30N 32°38' W 117°42'712.6
2018-Jun-14 12:59N 32°38' W 117°34'611.6
2018-Jun-14 12:30N 32°38' W 117°28'611.6
2018-Jun-14 12:00N 32°38' W 117°21'610.8
2018-Jun-14 11:29N 32°38' W 117°14'6 8.9
2018-Jun-14 10:52N 32°43' W 117°12'6 9.9
2018-Jun-14 10:18N 32°39' W 117°07'0 0.2
2018-Jun-14 09:36N 32°39' W 117°07'0 0.0
2018-Jun-14 08:12N 32°39' W 117°07'0 0.0
2018-Jun-14 08:00N 32°39' W 117°07'0 0.0
2018-Jun-14 06:33N 32°39' W 117°07'0 0.0
2018-Jun-14 06:27N 32°39' W 117°07'0 0.0
2018-Jun-14 05:51N 32°39' W 117°07'0 0.0
2018-Jun-14 05:27N 32°39' W 117°07'0 0.0
2018-Jun-14 05:00N 32°39' W 117°07'0 0.0
2018-Jun-14 04:27N 32°39' W 117°07'0 0.0
2018-Jun-14 02:54N 32°39' W 117°07'0 0.0
2018-Jun-14 02:30N 32°39' W 117°07'0 0.0
2018-Jun-14 02:00N 32°39' W 117°07'0 0.0
2018-Jun-14 00:39N 32°39' W 117°07'0 0.0
2018-Jun-14 00:15N 32°39' W 117°07'0 0.0
2018-Jun-13 23:48N 32°39' W 117°07'0 0.0
2018-Jun-13 23:27N 32°39' W 117°07'0 0.0
2018-Jun-13 22:57N 32°39' W 117°07'0 0.0
2018-Jun-13 22:15N 32°39' W 117°07'0 0.0
2018-Jun-13 22:00N 32°39' W 117°07'0 0.0
2018-Jun-13 19:45N 32°39' W 117°07'0 0.0
2018-Jun-13 19:18N 32°39' W 117°07'0 0.0
2018-Jun-13 19:00N 32°39' W 117°07'0 0.0
2018-Jun-13 18:30N 32°39' W 117°07'0 0.0
2018-Jun-13 18:00N 32°39' W 117°07'0 0.0
2018-Jun-13 17:24N 32°39' W 117°07'0 0.0
2018-Jun-13 17:00N 32°39' W 117°07'0 0.0
2018-Jun-13 15:36N 32°39' W 117°07'0 0.0
2018-Jun-13 15:09N 32°39' W 117°07'0 0.0
2018-Jun-13 14:39N 32°39' W 117°07'0 0.0
2018-Jun-13 13:30N 32°39' W 117°07'0 0.0
2018-Jun-13 12:12N 32°39' W 117°07'0 0.0
2018-Jun-13 12:00N 32°39' W 117°07'0 0.0
2018-Jun-13 11:30N 32°39' W 117°07'2 3.6
2018-Jun-13 10:58N 32°41' W 117°08'5 6.2
2018-Jun-13 10:13N 32°39' W 117°14'2 8.3
2018-Jun-13 10:00N 32°38' W 117°14'4 7.8
2018-Jun-13 09:30N 32°37' W 117°18'611.2
2018-Jun-13 09:00N 32°37' W 117°25'611.8
2018-Jun-13 08:31N 32°37' W 117°32'611.5
2018-Jun-13 08:00N 32°37' W 117°39'713.9
2018-Jun-13 07:30N 32°37' W 117°47'715.0
2018-Jun-13 07:00N 32°37' W 117°56'714.7
2018-Jun-13 06:30N 32°37' W 118°05'714.6
2018-Jun-13 06:00N 32°36' W 118°13'714.6
2018-Jun-13 05:30N 32°36' W 118°22'714.5
2018-Jun-13 05:00N 32°35' W 118°30'714.7
2018-Jun-13 04:31N 32°35' W 118°39'815.2
2018-Jun-13 04:00N 32°35' W 118°48'815.2
2018-Jun-13 03:30N 32°34' W 118°57'714.7
2018-Jun-13 03:00N 32°34' W 119°06'714.5
2018-Jun-13 02:30N 32°32' W 119°15'714.6
2018-Jun-13 02:00N 32°29' W 119°22'814.3
2018-Jun-13 01:29N 32°26' W 119°30'5 2.4
2018-Jun-12 23:22N 32°27' W 119°36'1 2.3
2018-Jun-12 22:58N 32°28' W 119°36'2 1.8
2018-Jun-12 21:45N 32°30' W 119°38'1 4.6
2018-Jun-12 21:29N 32°29' W 119°39'2714.5
2018-Jun-12 19:39N 32°25' W 120°10'715.1
2018-Jun-12 19:11N 32°24' W 120°18'212.7
2018-Jun-12 19:00N 32°24' W 120°21'813.9
2018-Jun-12 18:25N 32°22' W 120°30'713.4
2018-Jun-12 17:54N 32°21' W 120°38'5913.2
2018-Jun-12 13:25N 32°15' W 121°48'614.5
2018-Jun-12 13:00N 32°20' W 121°51'814.6
2018-Jun-12 12:29N 32°27' W 121°55'714.4
2018-Jun-12 12:00N 32°33' W 121°59'714.4
2018-Jun-12 11:30N 32°39' W 122°03'714.4
2018-Jun-12 11:00N 32°45' W 122°08'714.5
2018-Jun-12 10:29N 32°52' W 122°12'714.4
2018-Jun-12 10:00N 32°58' W 122°16'714.4
2018-Jun-12 09:30N 33°04' W 122°20'1814.4
2018-Jun-12 08:16N 33°20' W 122°31'514.3
2018-Jun-12 07:53N 33°24' W 122°35'814.6
2018-Jun-12 07:22N 33°31' W 122°39'514.4
2018-Jun-12 07:00N 33°35' W 122°42'714.4
2018-Jun-12 06:30N 33°41' W 122°47'814.5
2018-Jun-12 05:58N 33°48' W 122°51'714.5
2018-Jun-12 05:30N 33°54' W 122°55'714.5
2018-Jun-12 05:00N 34°01' W 122°59'714.9
2018-Jun-12 04:30N 34°07' W 123°03'714.8
2018-Jun-12 04:00N 34°14' W 123°07'1114.8
2018-Jun-12 03:15N 34°24' W 123°13'414.9
2018-Jun-12 03:00N 34°27' W 123°15'715.0
2018-Jun-12 02:30N 34°33' W 123°20'915.0
2018-Jun-12 01:55N 34°41' W 123°25'1714.6
2018-Jun-12 00:44N 34°56' W 123°34'14914.9
2018-Jun-11 14:46N 37°10' W 124°54'414.9
2018-Jun-11 14:29N 37°14' W 124°56'1114.6
2018-Jun-11 13:42N 37°25' W 125°02'314.6
2018-Jun-11 13:30N 37°27' W 125°04'1914.7
2018-Jun-11 12:14N 37°44' W 125°14'1714.9
2018-Jun-11 11:07N 37°59' W 125°23'514.8
2018-Jun-11 10:46N 38°04' W 125°26'43714.1
2018-Jun-10 03:48N 45°21' W 125°19'914.4
2018-Jun-10 03:10N 45°30' W 125°20'214.3
2018-Jun-10 03:00N 45°32' W 125°20'1114.5
2018-Jun-10 02:15N 45°43' W 125°20'314.1
2018-Jun-10 02:01N 45°46' W 125°20'714.4
2018-Jun-10 01:31N 45°54' W 125°21'1514.4
2018-Jun-10 00:27N 46°09' W 125°21'614.4
2018-Jun-10 00:00N 46°15' W 125°22'714.3
2018-Jun-09 23:31N 46°22' W 125°22'714.3
2018-Jun-09 23:01N 46°30' W 125°22'714.3
2018-Jun-09 22:31N 46°37' W 125°22'714.1
2018-Jun-09 22:01N 46°44' W 125°23'913.7
2018-Jun-09 21:22N 46°52' W 125°24'6814.3
2018-Jun-09 16:38N 47°60' W 125°22'513.9
2018-Jun-09 16:17N 48°05' W 125°20'414.1
2018-Jun-09 16:00N 48°09' W 125°19'714.2
2018-Jun-09 15:30N 48°16' W 125°17'1313.5
2018-Jun-09 14:30N 48°27' W 125°06'713.0
2018-Jun-09 14:00N 48°31' W 124°58'713.6
2018-Jun-09 13:30N 48°31' W 124°48'815.1
2018-Jun-09 13:00N 48°29' W 124°37'815.8
2018-Jun-09 12:30N 48°26' W 124°26'816.2
2018-Jun-09 12:01N 48°23' W 124°15'815.9
2018-Jun-09 11:30N 48°20' W 124°04'816.0
2018-Jun-09 10:59N 48°17' W 123°52'815.8
2018-Jun-09 10:30N 48°16' W 123°40'714.2
2018-Jun-09 09:59N 48°17' W 123°29'814.5
2018-Jun-09 09:28N 48°23' W 123°23'510.6
2018-Jun-09 09:00N 48°24' W 123°16'816.5
2018-Jun-09 08:30N 48°32' W 123°13'918.4
2018-Jun-09 08:00N 48°41' W 123°16'917.0
2018-Jun-09 07:30N 48°45' W 123°05'713.0
2018-Jun-09 07:00N 48°52' W 123°05'918.6
2018-Jun-09 06:30N 48°58' W 123°15'714.1
2018-Jun-09 06:00N 49°04' W 123°21'5 9.8
2018-Jun-09 05:29N 49°08' W 123°15'611.7
2018-Jun-09 05:00N 49°07' W 123°06'2 3.4
2018-Jun-09 04:29N 49°08' W 123°04'0 0.0
2018-Jun-09 03:59N 49°08' W 123°04'0 0.0
2018-Jun-09 03:29N 49°08' W 123°04'0 0.0
2018-Jun-09 02:59N 49°08' W 123°04'0 0.0
2018-Jun-09 02:29N 49°08' W 123°04'0 0.0
2018-Jun-09 01:59N 49°08' W 123°04'0 0.0
2018-Jun-09 01:29N 49°08' W 123°04'0 0.0
2018-Jun-09 00:59N 49°08' W 123°04'0 0.0
2018-Jun-09 00:29N 49°08' W 123°04'0 0.0
2018-Jun-08 23:59N 49°08' W 123°04'0 0.0
2018-Jun-08 23:29N 49°08' W 123°04'0 0.0
2018-Jun-08 22:59N 49°08' W 123°04'0 0.0
2018-Jun-08 22:29N 49°08' W 123°04'0 0.0
2018-Jun-08 21:59N 49°08' W 123°04'0 0.0
2018-Jun-08 21:29N 49°08' W 123°04'0 0.0
2018-Jun-08 20:53N 49°08' W 123°04'0 0.0
2018-Jun-08 20:29N 49°08' W 123°04'0 0.0
2018-Jun-08 19:59N 49°08' W 123°04'0 0.0
2018-Jun-08 19:29N 49°08' W 123°04'0 0.0
2018-Jun-08 18:59N 49°08' W 123°04'0 0.0
2018-Jun-08 18:29N 49°08' W 123°04'0 0.0
2018-Jun-08 17:59N 49°08' W 123°04'0 0.0
2018-Jun-08 17:29N 49°08' W 123°04'0 0.0
2018-Jun-08 16:56N 49°08' W 123°04'0 0.0
2018-Jun-08 16:29N 49°08' W 123°04'0 0.0
2018-Jun-08 15:59N 49°08' W 123°04'0 0.0
2018-Jun-08 15:29N 49°08' W 123°04'0 0.0
2018-Jun-08 14:59N 49°08' W 123°04'0 0.0
2018-Jun-08 14:29N 49°08' W 123°04'0 0.0
2018-Jun-08 13:59N 49°08' W 123°04'0 0.0
2018-Jun-08 13:29N 49°08' W 123°04'0 0.0
2018-Jun-08 12:59N 49°08' W 123°04'0 0.0
2018-Jun-08 12:29N 49°08' W 123°04'0 0.0
2018-Jun-08 11:59N 49°08' W 123°04'0 0.0
2018-Jun-08 11:29N 49°08' W 123°04'0 0.0
2018-Jun-08 10:59N 49°08' W 123°04'0 0.0
2018-Jun-08 10:28N 49°08' W 123°04'0 0.0
2018-Jun-08 09:59N 49°08' W 123°04'0 0.0
2018-Jun-08 09:29N 49°08' W 123°04'0 0.0
2018-Jun-08 08:59N 49°08' W 123°04'0 0.0
2018-Jun-08 08:29N 49°08' W 123°04'0 0.0
2018-Jun-08 07:59N 49°08' W 123°04'0 0.0
2018-Jun-08 07:29N 49°08' W 123°04'0 0.0
2018-Jun-08 06:59N 49°08' W 123°04'0 0.0
2018-Jun-08 06:29N 49°08' W 123°04'0 0.0
2018-Jun-08 05:59N 49°08' W 123°04'0 0.0
2018-Jun-08 05:29N 49°08' W 123°04'0 0.0
2018-Jun-08 04:59N 49°08' W 123°04'0 0.0
2018-Jun-08 04:29N 49°08' W 123°04'0 0.0
2018-Jun-08 03:59N 49°08' W 123°04'0 0.0
2018-Jun-08 03:29N 49°08' W 123°04'0 0.0
2018-Jun-08 02:59N 49°08' W 123°04'0 0.0
2018-Jun-08 02:29N 49°08' W 123°04'0 0.0
2018-Jun-08 01:56N 49°08' W 123°04'0 0.0
2018-Jun-08 01:29N 49°08' W 123°04'0 0.0
2018-Jun-08 00:59N 49°08' W 123°04'0 0.0
2018-Jun-08 00:29N 49°08' W 123°04'0 0.0
2018-Jun-07 23:59N 49°08' W 123°04'0 0.0
2018-Jun-07 23:29N 49°08' W 123°04'0 0.0
2018-Jun-07 22:59N 49°08' W 123°04'0 0.0
2018-Jun-07 22:29N 49°08' W 123°04'0 0.0
2018-Jun-07 21:59N 49°08' W 123°04'0 0.0
2018-Jun-07 21:29N 49°08' W 123°04'0 0.0
2018-Jun-07 20:59N 49°08' W 123°04'0 0.0
2018-Jun-07 20:29N 49°08' W 123°04'0 0.0
2018-Jun-07 19:59N 49°08' W 123°04'0 0.0
2018-Jun-07 19:29N 49°08' W 123°04'0 0.0
2018-Jun-07 18:59N 49°08' W 123°04'0 0.0
2018-Jun-07 18:29N 49°08' W 123°04'0 0.0
2018-Jun-07 17:59N 49°08' W 123°04'0 0.0
2018-Jun-07 17:29N 49°08' W 123°04'0 0.0
2018-Jun-07 16:59N 49°08' W 123°04'0 0.0
2018-Jun-07 16:29N 49°08' W 123°04'0 0.0
2018-Jun-07 15:59N 49°08' W 123°04'0 0.0
2018-Jun-07 15:29N 49°08' W 123°04'0 0.0
2018-Jun-07 14:59N 49°08' W 123°04'0 0.0
2018-Jun-07 14:29N 49°08' W 123°04'0 0.0
2018-Jun-07 13:56N 49°08' W 123°04'0 0.0
2018-Jun-07 13:29N 49°08' W 123°04'0 0.8
2018-Jun-07 13:00N 49°07' W 123°04'5 9.0
2018-Jun-07 12:30N 49°07' W 123°11'5 9.7
2018-Jun-07 12:00N 49°06' W 123°19'3 6.4
2018-Jun-07 11:30N 49°03' W 123°18'816.4
2018-Jun-07 11:00N 48°57' W 123°10'918.4
2018-Jun-07 10:30N 48°50' W 123°01'815.1
2018-Jun-07 10:00N 48°44' W 123°07'714.5
2018-Jun-07 09:31N 48°38' W 123°14'918.4
2018-Jun-07 09:01N 48°29' W 123°10'815.0
2018-Jun-07 08:30N 48°23' W 123°16'510.9
2018-Jun-07 08:00N 48°21' W 123°24'18 9.7
2018-Jun-07 06:07N 48°12' W 122°59'2215.2
2018-Jun-07 04:42N 47°58' W 122°35'316.6
2018-Jun-07 04:30N 47°56' W 122°31'917.8
2018-Jun-07 04:01N 47°48' W 122°27'918.4
2018-Jun-07 03:31N 47°39' W 122°27'918.7
2018-Jun-07 03:01N 47°30' W 122°25'816.0
2018-Jun-07 02:31N 47°22' W 122°23'5 9.5
2018-Jun-07 01:59N 47°17' W 122°26'2 4.6
2018-Jun-07 01:27N 47°16' W 122°23'0 0.0
2018-Jun-06 20:46N 47°15' W 122°23'0 0.0
2018-Jun-06 20:31N 47°15' W 122°23'0 0.0
2018-Jun-06 19:04N 47°15' W 122°23'0 0.0
2018-Jun-06 18:40N 47°15' W 122°23'0 0.0
2018-Jun-06 18:16N 47°15' W 122°23'0 0.0
2018-Jun-06 16:40N 47°15' W 122°23'0 0.0
2018-Jun-06 16:25N 47°15' W 122°23'0 0.0
2018-Jun-06 15:13N 47°15' W 122°23'0 0.0
2018-Jun-06 14:58N 47°15' W 122°23'0 0.0
2018-Jun-06 13:28N 47°15' W 122°23'0 0.0
2018-Jun-06 11:40N 47°15' W 122°23'0 0.0
2018-Jun-06 11:28N 47°15' W 122°23'0 0.0
2018-Jun-06 10:52N 47°15' W 122°23'0 0.1
2018-Jun-06 10:29N 47°16' W 122°23'1 2.9
2018-Jun-06 10:00N 47°16' W 122°24'3 5.0
2018-Jun-06 09:30N 47°18' W 122°27'612.8
2018-Jun-06 09:01N 47°23' W 122°22'916.8
2018-Jun-06 08:30N 47°31' W 122°26'816.7
2018-Jun-06 08:01N 47°39' W 122°28'815.4
2018-Jun-06 07:30N 47°47' W 122°27'816.6
2018-Jun-06 07:01N 47°55' W 122°30'917.6
2018-Jun-06 06:29N 48°02' W 122°39'917.9
2018-Jun-06 06:00N 48°10' W 122°45'1018.7
2018-Jun-06 05:27N 48°12' W 123°01'1813.9
2018-Jun-06 04:08N 48°12' W 123°28'915.7
2018-Jun-06 03:36N 48°13' W 123°41'218.1
2018-Jun-06 03:30N 48°13' W 123°43'917.8
2018-Jun-06 03:00N 48°14' W 123°56'917.8
2018-Jun-06 02:31N 48°17' W 124°09'918.1
2018-Jun-06 02:00N 48°21' W 124°21'918.3
2018-Jun-06 01:30N 48°25' W 124°33'917.5
2018-Jun-06 01:00N 48°29' W 124°45'918.3
2018-Jun-06 00:30N 48°29' W 124°59'917.4
2018-Jun-06 00:00N 48°29' W 125°12'815.0
2018-Jun-05 23:29N 48°28' W 125°24'2 4.6
2018-Jun-05 23:00N 48°28' W 125°27'714.0
2018-Jun-05 22:30N 48°29' W 125°38'816.5
2018-Jun-05 22:00N 48°29' W 125°50'816.9
2018-Jun-05 21:31N 48°29' W 126°03'816.9
2018-Jun-05 21:01N 48°29' W 126°16'816.6
2018-Jun-05 20:31N 48°30' W 126°28'  

Dump ship's entire track history